Time;durP1;ratioP1;P1;durP2;ratioP2;P2;SDS_P1;SDS_P2;PMS_P1;PMS_P2;Temp;Humidity;BMP_temperature;BMP_pressure;BME280_temperature;BME280_humidity;BME280_pressure;Samples;Min_cycle;Max_cycle;Signal;HPM_P1;HPM_P2
2023/01/22 00:00:35;;;;;;;10.23;4.95;;;;;;;-2.87;55.49;101671.06;6210643;23;20024;-82
2023/01/22 00:03:01;;;;;;;8.13;4.18;;;;;;;-2.87;55.26;101690.56;6211897;23;20027;-81
2023/01/22 00:05:29;;;;;;;9.57;4.07;;;;;;;-2.91;55.13;101676.72;6210194;23;20012;-82
2023/01/22 00:07:55;;;;;;;11.13;4.40;;;;;;;-3.11;55.57;101642.06;6209958;23;20611;-80
2023/01/22 00:10:21;;;;;;;12.90;4.93;;;;;;;-2.95;55.20;101672.16;6211152;23;20044;-82
2023/01/22 00:12:46;;;;;;;10.57;4.72;;;;;;;-2.76;55.15;101688.81;6210227;23;20099;-82
2023/01/22 00:15:13;;;;;;;11.73;4.97;;;;;;;-2.85;55.49;101661.00;6185141;23;20491;-82
2023/01/22 00:17:40;;;;;;;14.95;4.47;;;;;;;-2.96;55.44;101664.38;6184981;23;20086;-81
2023/01/22 00:20:06;;;;;;;13.57;5.05;;;;;;;-2.79;55.19;101693.69;6184175;23;20794;-81
2023/01/22 00:22:33;;;;;;;12.07;4.50;;;;;;;-2.87;55.34;101700.75;6210269;23;20079;-81
2023/01/22 00:24:59;;;;;;;9.93;4.20;;;;;;;-3.35;55.31;101613.09;6162882;23;20468;-81
2023/01/22 00:27:25;;;;;;;11.10;4.75;;;;;;;-3.11;55.73;101647.16;6211409;23;20021;-83
2023/01/22 00:29:51;;;;;;;8.85;4.43;;;;;;;-2.76;55.54;101701.56;6206048;23;20020;-82
2023/01/22 00:32:17;;;;;;;10.35;5.03;;;;;;;-2.83;55.10;101701.88;6185517;23;20016;-83
2023/01/22 00:34:49;;;;;;;9.48;4.60;;;;;;;-2.85;55.69;101699.22;6210497;23;20027;-82
2023/01/22 00:37:15;;;;;;;10.55;5.18;;;;;;;-2.91;55.48;101688.56;6185554;23;20020;-82
2023/01/22 00:39:43;;;;;;;10.15;4.32;;;;;;;-2.90;55.75;101687.78;6211144;23;20020;-81
2023/01/22 00:42:09;;;;;;;10.93;4.90;;;;;;;-2.89;55.28;101693.00;6185167;23;20024;-82
2023/01/22 00:44:35;;;;;;;8.98;4.45;;;;;;;-2.95;56.00;101671.25;6184703;23;20020;-81
2023/01/22 00:47:01;;;;;;;14.00;4.68;;;;;;;-2.82;55.69;101693.44;6210100;23;20020;-82
2023/01/22 00:49:27;;;;;;;7.60;4.13;;;;;;;-3.23;55.57;101628.41;6209672;23;20040;-82
2023/01/22 00:51:53;;;;;;;9.77;4.45;;;;;;;-2.87;56.24;101678.69;6210021;23;20020;-83
2023/01/22 00:54:19;;;;;;;13.85;4.60;;;;;;;-2.81;55.72;101693.59;6211577;23;20454;-81
2023/01/22 00:56:46;;;;;;;9.90;4.45;;;;;;;-3.11;56.10;101629.34;6210164;23;20588;-83
2023/01/22 00:59:12;;;;;;;12.13;5.05;;;;;;;-2.92;55.79;101643.47;6211265;23;20040;-81
2023/01/22 01:01:38;;;;;;;9.77;4.60;;;;;;;-2.65;56.33;101676.88;6159985;23;20723;-82
2023/01/22 01:04:04;;;;;;;10.88;4.78;;;;;;;-2.67;56.38;101689.53;6209656;23;20454;-82
2023/01/22 01:06:31;;;;;;;9.20;4.72;;;;;;;-2.77;55.58;101687.97;6210932;23;20020;-81
2023/01/22 01:08:57;;;;;;;10.32;4.63;;;;;;;-2.88;55.94;101679.50;6209002;23;20023;-80
2023/01/22 01:11:25;;;;;;;9.15;4.68;;;;;;;-3.25;56.06;101615.56;6184505;23;20478;-81
2023/01/22 01:13:52;;;;;;;12.20;4.65;;;;;;;-2.92;56.22;101667.28;6210306;23;20024;-81
2023/01/22 01:16:28;;;;;;;12.07;4.80;;;;;;;-3.09;56.14;101663.47;6210132;23;20024;-82
2023/01/22 01:19:01;;;;;;;12.02;4.70;;;;;;;-3.18;56.65;101639.81;6185939;23;20050;-81
2023/01/22 01:21:28;;;;;;;;;;;;;;;-2.82;56.31;101691.81;6212257;23;20055;-82
2023/01/22 01:23:55;;;;;;;8.50;4.30;;;;;;;-2.95;56.70;101673.78;6210991;23;20014;-80
2023/01/22 01:26:21;;;;;;;9.43;4.20;;;;;;;-3.41;56.38;101597.34;6211529;23;20016;-80
2023/01/22 01:28:48;;;;;;;10.85;4.57;;;;;;;-2.96;56.68;101670.38;6209606;23;20055;-82
2023/01/22 01:31:15;;;;;;;12.95;5.05;;;;;;;-2.79;56.55;101692.03;6205430;23;20119;-81
2023/01/22 01:33:42;;;;;;;12.13;5.10;;;;;;;-3.00;57.04;101631.81;6209870;23;20024;-81
2023/01/22 01:36:14;;;;;;;13.00;5.13;;;;;;;-2.72;56.49;101673.00;6185411;23;20020;-81
2023/01/22 01:38:41;;;;;;;12.93;5.30;;;;;;;-2.61;56.51;101689.97;6209852;23;20104;-80
2023/01/22 01:41:07;;;;;;;12.73;4.70;;;;;;;-2.68;56.70;101677.56;6184136;23;20113;-82
2023/01/22 01:43:34;;;;;;;11.77;4.45;;;;;;;-2.70;56.53;101663.81;6211610;23;20017;-82
2023/01/22 01:46:03;;;;;;;12.52;4.97;;;;;;;-2.78;56.88;101658.16;6210268;23;20012;-81
2023/01/22 01:48:42;;;;;;;11.65;5.57;;;;;;;-2.81;56.51;101668.09;6211576;23;20016;-80
2023/01/22 01:51:14;;;;;;;11.40;5.10;;;;;;;-2.58;57.02;101699.53;6212279;23;20016;-82
2023/01/22 01:53:43;;;;;;;14.38;6.20;;;;;;;-2.83;56.50;101661.09;6209014;23;20016;-82
2023/01/22 01:56:16;;;;;;;11.90;4.95;;;;;;;-3.13;56.47;101627.47;6211236;23;20060;-82
2023/01/22 01:58:44;;;;;;;9.88;5.32;;;;;;;-2.81;56.83;101673.19;6211667;23;20020;-80
2023/01/22 02:01:14;;;;;;;12.77;5.15;;;;;;;-2.60;57.07;101701.06;6198399;23;20020;-80
2023/01/22 02:03:41;;;;;;;14.88;6.25;;;;;;;-2.57;56.96;101698.75;6227614;23;20020;-80
2023/01/22 02:06:13;;;;;;;9.90;4.97;;;;;;;-2.53;57.53;101699.84;6189762;23;20012;-82
2023/01/22 02:08:41;;;;;;;10.50;5.03;;;;;;;-2.64;57.04;101679.53;6184415;23;20016;-82
2023/01/22 02:11:08;;;;;;;12.45;5.38;;;;;;;-2.61;57.08;101679.78;6211274;23;20357;-80
2023/01/22 02:13:36;;;;;;;16.45;5.60;;;;;;;-2.46;56.73;101705.53;6209794;23;20143;-82
2023/01/22 02:16:04;;;;;;;12.27;5.70;;;;;;;-2.40;56.92;101702.53;6209460;23;20013;-80
2023/01/22 02:18:30;;;;;;;10.38;4.95;;;;;;;-2.36;56.70;101716.44;6210937;23;20017;-80
2023/01/22 02:20:59;;;;;;;11.75;5.60;;;;;;;-2.47;56.35;101710.53;6209031;23;20120;-81
2023/01/22 02:23:27;;;;;;;11.32;4.85;;;;;;;-2.54;56.83;101705.72;6185608;23;20024;-81
2023/01/22 02:25:54;;;;;;;12.77;5.45;;;;;;;-2.62;57.10;101700.06;6209323;23;20103;-80
2023/01/22 02:28:21;;;;;;;11.55;5.10;;;;;;;-2.65;57.19;101677.78;6208812;23;20476;-81
2023/01/22 02:30:50;;;;;;;14.88;5.50;;;;;;;-2.91;56.58;101647.78;6154813;23;20051;-80
2023/01/22 02:33:17;;;;;;;15.77;5.78;;;;;;;-2.68;57.47;101692.84;6208969;23;20016;-80
2023/01/22 02:35:43;;;;;;;14.68;6.35;;;;;;;-2.66;56.72;101701.50;6208797;23;20048;-81
2023/01/22 02:38:10;;;;;;;13.40;5.78;;;;;;;-2.57;57.30;101714.94;6184128;23;20018;-79
2023/01/22 02:40:47;;;;;;;13.07;5.70;;;;;;;-2.52;57.25;101720.34;6160631;23;20028;-81
2023/01/22 02:43:16;;;;;;;17.60;5.78;;;;;;;-2.87;57.14;101675.28;6209417;23;20441;-80
2023/01/22 02:45:42;;;;;;;10.70;5.90;;;;;;;-2.73;57.33;101697.59;6208611;23;20462;-81
2023/01/22 02:48:08;;;;;;;12.57;5.45;;;;;;;-2.61;57.56;101710.38;6208174;23;20044;-80
2023/01/22 02:50:37;;;;;;;11.93;6.13;;;;;;;-2.78;57.57;101669.97;6183144;23;20017;-81
2023/01/22 02:53:04;;;;;;;16.02;6.13;;;;;;;-2.54;57.46;101706.63;6208419;23;20059;-82
2023/01/22 02:55:30;;;;;;;11.93;5.38;;;;;;;-2.82;57.75;101665.41;6208085;23;20016;-81
2023/01/22 02:57:56;;;;;;;13.93;5.95;;;;;;;-2.63;57.38;101714.44;6213121;23;20020;-80
2023/01/22 03:00:22;;;;;;;10.80;5.57;;;;;;;-2.80;56.97;101690.28;6188131;23;20101;-82
2023/01/22 03:02:49;;;;;;;14.63;6.38;;;;;;;-2.63;57.53;101728.88;6188257;23;20414;-78
2023/01/22 03:05:15;;;;;;;13.45;6.45;;;;;;;-2.79;57.71;101697.16;6188580;23;20024;-81
2023/01/22 03:07:43;;;;;;;14.68;6.32;;;;;;;-2.99;57.92;101652.31;6213767;23;20024;-80
2023/01/22 03:10:18;;;;;;;14.32;6.20;;;;;;;-2.55;57.88;101712.50;6213791;23;20017;-81
2023/01/22 03:21:21;;;;;;;16.08;6.40;;;;;;;-2.71;57.42;101702.81;6212993;23;20104;-82
2023/01/22 03:23:54;;;;;;;17.27;6.07;;;;;;;-2.70;57.64;101703.69;6215365;23;20023;-80
2023/01/22 03:26:22;;;;;;;14.20;6.45;;;;;;;-2.76;57.73;101705.00;6212960;23;20024;-79
2023/01/22 03:28:49;;;;;;;16.15;6.22;;;;;;;-2.66;57.61;101721.00;6188099;23;20059;-80
2023/01/22 03:31:16;;;;;;;12.57;6.22;;;;;;;-2.66;57.51;101739.75;6188261;23;20020;-79
2023/01/22 03:33:42;;;;;;;13.60;6.55;;;;;;;-2.65;58.21;101738.06;6214638;23;20024;-80
2023/01/22 03:36:12;;;;;;;16.00;6.70;;;;;;;-2.87;58.13;101696.53;6188042;23;20024;-80
2023/01/22 03:38:44;;;;;;;13.60;6.75;;;;;;;-2.59;57.90;101729.22;6187795;23;20027;-81
2023/01/22 03:41:16;;;;;;;14.93;6.88;;;;;;;-2.44;58.09;101733.72;6188783;23;20488;-80
2023/01/22 03:43:44;;;;;;;14.10;6.03;;;;;;;-2.53;58.21;101710.06;6213009;23;20028;-80
2023/01/22 03:46:17;;;;;;;16.67;6.47;;;;;;;-2.37;57.98;101735.91;6213127;23;20040;-79
2023/01/22 03:48:49;;;;;;;20.20;6.70;;;;;;;-2.44;57.96;101744.78;6187820;23;20020;-80
2023/01/22 03:51:16;;;;;;;18.17;6.05;;;;;;;-2.69;58.10;101705.47;6212766;23;20024;-79
2023/01/22 03:53:43;;;;;;;14.68;6.43;;;;;;;-2.57;58.17;101722.56;6187412;23;20479;-80
2023/01/22 03:56:12;;;;;;;18.15;6.85;;;;;;;-2.45;58.17;101732.81;6212803;23;20577;-80
2023/01/22 03:58:39;;;;;;;13.98;6.03;;;;;;;-2.51;58.05;101729.78;6213406;23;20016;-79
2023/01/22 04:01:11;;;;;;;14.52;6.80;;;;;;;-2.55;58.15;101732.00;6190716;23;20024;-81
2023/01/22 04:03:38;;;;;;;16.67;7.20;;;;;;;-2.56;57.80;101741.31;6191028;23;20075;-81
2023/01/22 04:06:07;;;;;;;14.05;5.68;;;;;;;-2.74;58.16;101712.78;6212842;23;20477;-81
2023/01/22 04:08:35;;;;;;;13.65;6.57;;;;;;;-2.70;57.84;101726.63;6187814;23;20100;-80
2023/01/22 04:11:02;;;;;;;18.88;6.65;;;;;;;-2.55;58.56;101743.09;6213160;23;20024;-80
2023/01/22 04:13:31;;;;;;;21.80;6.90;;;;;;;-2.99;58.28;101670.13;6213307;23;20020;-81
2023/01/22 04:15:58;;;;;;;17.33;6.65;;;;;;;-2.58;58.24;101740.31;6214124;23;20362;-80
2023/01/22 04:18:50;;;;;;;14.48;6.25;;;;;;;-2.50;58.49;101759.59;6182249;23;20122;-79
2023/01/22 04:21:23;;;;;;;18.23;7.18;;;;;;;-2.59;58.38;101744.50;6213154;23;20127;-80
2023/01/22 04:23:55;;;;;;;16.02;6.50;;;;;;;-2.57;58.15;101748.06;6188498;23;20021;-82
2023/01/22 04:26:21;;;;;;;13.10;6.40;;;;;;;-2.65;58.09;101753.38;6213118;23;20349;-80
2023/01/22 04:28:48;;;;;;;16.40;7.00;;;;;;;-2.65;58.28;101769.56;6212711;23;20527;-81
2023/01/22 04:31:14;;;;;;;15.55;6.88;;;;;;;-2.79;58.74;101745.56;6188039;23;20361;-79
2023/01/22 04:33:49;;;;;;;15.45;6.55;;;;;;;-2.70;58.91;101744.47;6188175;23;20012;-80
2023/01/22 04:36:25;;;;;;;14.45;6.32;;;;;;;-3.09;57.96;101696.56;6190044;23;20017;-80
2023/01/22 04:38:52;;;;;;;15.20;6.82;;;;;;;-2.97;58.28;101711.00;6214219;23;20103;-80
2023/01/22 04:41:18;;;;;;;13.30;7.35;;;;;;;-2.98;58.70;101714.34;6212997;23;20027;-81
2023/01/22 04:43:44;;;;;;;17.35;7.25;;;;;;;-2.83;58.80;101737.53;6211395;23;20120;-81
2023/01/22 04:46:10;;;;;;;16.27;7.15;;;;;;;-2.95;58.87;101723.13;6212157;23;20023;-81
2023/01/22 04:48:37;;;;;;;17.50;6.97;;;;;;;-2.75;58.48;101769.63;6161992;23;20339;-80
2023/01/22 04:51:03;;;;;;;14.95;7.10;;;;;;;-2.88;58.58;101749.94;6188294;23;20418;-80
2023/01/22 04:53:30;;;;;;;16.80;7.18;;;;;;;-3.23;59.15;101687.00;6186835;23;20017;-80
2023/01/22 04:55:56;;;;;;;20.05;6.95;;;;;;;-2.92;59.24;101735.19;6213288;23;20457;-80
2023/01/22 04:58:22;;;;;;;19.83;7.07;;;;;;;-3.09;59.46;101699.13;6218287;23;20020;-82
2023/01/22 05:00:50;;;;;;;15.07;6.82;;;;;;;-2.78;59.24;101741.34;6195604;23;20021;-80
2023/01/22 05:03:16;;;;;;;16.10;6.88;;;;;;;-2.74;59.72;101753.56;6215069;23;20457;-81
2023/01/22 05:05:42;;;;;;;17.38;7.32;;;;;;;-2.86;59.05;101722.94;6193360;23;20039;-79
2023/01/22 05:08:08;;;;;;;18.20;7.75;;;;;;;-2.80;59.21;101737.78;6212524;23;20027;-81
2023/01/22 05:10:36;;;;;;;18.75;7.07;;;;;;;-2.80;58.90;101743.78;6187522;23;20458;-81
2023/01/22 05:13:05;;;;;;;12.90;6.57;;;;;;;-2.90;59.46;101733.66;6212510;23;20039;-80
2023/01/22 05:15:33;;;;;;;18.73;7.13;;;;;;;-2.91;59.37;101744.59;6187791;23;20016;-81
2023/01/22 05:18:05;;;;;;;15.88;6.90;;;;;;;-3.13;59.32;101709.84;6211515;23;20016;-81
2023/01/22 05:20:34;;;;;;;15.05;6.97;;;;;;;-2.75;59.43;101773.03;6187059;23;20130;-82
2023/01/22 05:23:01;;;;;;;15.43;7.18;;;;;;;-2.99;59.48;101738.06;6186264;23;20080;-81
2023/01/22 05:25:28;;;;;;;16.02;7.55;;;;;;;-2.87;59.35;101761.91;6212025;23;20017;-81
2023/01/22 05:27:56;;;;;;;16.63;8.40;;;;;;;-2.84;59.60;101768.91;6211504;23;20423;-80
2023/01/22 05:30:34;;;;;;;18.27;7.20;;;;;;;-2.85;59.81;101769.66;6212215;23;20082;-80
2023/01/22 05:33:14;;;;;;;17.63;6.72;;;;;;;-2.85;60.02;101775.66;6211601;23;20028;-82
2023/01/22 05:35:40;;;;;;;16.25;7.03;;;;;;;-2.95;60.08;101752.78;6187379;23;20390;-81
2023/01/22 05:38:06;;;;;;;15.25;7.25;;;;;;;-2.78;59.26;101802.50;6211650;23;20508;-80
2023/01/22 05:40:51;;;;;;;20.52;8.07;;;;;;;-2.90;60.36;101785.50;6213602;23;20399;-81
2023/01/22 05:43:25;;;;;;;18.60;8.00;;;;;;;-3.16;59.92;101758.00;6212217;23;20501;-81
2023/01/22 05:46:01;;;;;;;16.75;7.35;;;;;;;-3.32;60.12;101738.09;6165349;23;20023;-81
2023/01/22 05:49:14;;;;;;;19.25;7.65;;;;;;;-4.20;60.40;101588.69;6218780;23;20016;-83
2023/01/22 05:51:52;;;;;;;22.02;7.93;;;;;;;-4.17;60.76;101601.66;6221513;23;20016;-82
2023/01/22 05:55:00;;;;;;;20.27;7.78;;;;;;;-4.16;60.54;101621.25;6221260;23;20051;-81
2023/01/22 05:57:41;;;;;;;18.77;7.78;;;;;;;-3.84;60.77;101674.66;6116888;23;20012;-81
2023/01/22 06:00:13;;;;;;;17.90;8.70;;;;;;;-3.86;61.12;101660.94;6171103;23;20017;-79
2023/01/22 06:03:00;;;;;;;19.35;8.40;;;;;;;-3.82;61.36;101660.41;6198508;23;20397;-81
2023/01/22 06:05:34;;;;;;;23.27;7.28;;;;;;;-4.41;61.33;101584.56;6196453;23;20008;-81
2023/01/22 06:08:39;;;;;;;21.70;7.63;;;;;;;-4.02;60.88;101660.50;6188262;23;20066;-81
2023/01/22 06:11:09;;;;;;;21.33;8.48;;;;;;;-3.55;60.94;101710.81;6190246;23;20055;-80
2023/01/22 06:13:54;;;;;;;21.75;8.48;;;;;;;-3.74;61.42;101705.91;6187453;23;20115;-81
2023/01/22 06:16:33;;;;;;;14.40;7.00;;;;;;;-3.81;61.54;101686.72;6212355;23;20055;-81
2023/01/22 06:19:30;;;;;;;22.42;8.27;;;;;;;-4.03;61.26;101618.88;6211055;23;20036;-80
2023/01/22 06:22:24;;;;;;;20.58;8.30;;;;;;;-2.73;61.51;101855.63;6186966;23;20028;-80
2023/01/22 06:25:22;;;;;;;18.92;8.07;;;;;;;-2.96;61.88;101823.25;6190878;23;20017;-81
2023/01/22 06:28:15;;;;;;;20.33;9.25;;;;;;;-4.13;61.52;101607.09;6187932;23;20081;-80
2023/01/22 06:35:45;;;;;;;15.30;7.93;;;;;;;-3.02;61.66;101776.91;6199383;23;20028;-83
2023/01/22 06:38:51;;;;;;;16.77;7.82;;;;;;;-3.53;61.64;101697.44;6191599;23;20020;-80
2023/01/22 06:42:21;;;;;;;17.40;7.95;;;;;;;-3.76;61.58;101669.31;6133924;23;20014;-81
2023/01/22 06:45:11;;;;;;;23.75;8.50;;;;;;;-3.51;61.48;101703.53;6107531;23;20041;-81
2023/01/22 06:48:02;;;;;;;20.73;8.32;;;;;;;-3.72;61.83;101645.84;6128451;23;20013;-81
2023/01/22 06:50:34;;;;;;;19.65;8.65;;;;;;;-3.66;61.42;101652.34;6129683;23;20017;-80
2023/01/22 06:54:02;;;;;;;;;;;;;;;;;;;;;
2023/01/22 06:59:46;;;;;;;18.98;7.13;;;;;;;-3.45;61.79;101679.34;6098686;23;20025;-82
2023/01/22 07:02:26;;;;;;;;;;;;;;;;;;;;;
2023/01/22 07:04:56;;;;;;;24.50;8.25;;;;;;;-2.69;61.83;101809.97;6203395;23;20336;-82
2023/01/22 07:07:44;;;;;;;19.80;8.48;;;;;;;-2.35;62.38;101889.06;6184249;23;20044;-81
2023/01/22 07:10:13;;;;;;;20.75;9.10;;;;;;;-3.45;61.97;101677.69;6215322;23;20044;-81
2023/01/22 07:13:16;;;;;;;19.15;9.07;;;;;;;-2.83;61.99;101773.22;6213522;23;20016;-80
2023/01/22 07:15:45;;;;;;;22.98;9.57;;;;;;;-3.20;61.65;101722.88;6186845;23;20017;-81
2023/01/22 07:18:33;;;;;;;21.00;8.10;;;;;;;-2.42;61.54;101862.19;6192491;23;20016;-82
2023/01/22 07:21:44;;;;;;;;;;;;;;;-1.86;61.92;101931.06;6212953;23;20373;-83
2023/01/22 07:24:35;;;;;;;19.88;8.35;;;;;;;-2.59;61.84;101820.13;6189427;23;19947;-82
2023/01/22 07:27:48;;;;;;;26.17;9.38;;;;;;;-2.76;62.45;101755.09;6189281;23;20020;-81
2023/01/22 07:33:39;;;;;;;18.42;8.32;;;;;;;-2.98;62.16;101743.25;6122087;23;20021;-81
2023/01/22 07:36:19;;;;;;;22.85;8.68;;;;;;;-2.15;61.89;101886.38;6095654;23;20133;-81
2023/01/22 07:39:09;;;;;;;22.08;9.38;;;;;;;-3.14;61.78;101737.75;6139666;23;20066;-82
2023/01/22 07:41:45;;;;;;;20.15;9.40;;;;;;;-2.51;62.09;101824.13;6171338;23;20474;-81
2023/01/22 07:44:11;;;;;;;22.05;9.38;;;;;;;-2.17;61.88;101872.63;6212692;23;20473;-82
2023/01/22 07:46:40;;;;;;;21.23;9.90;;;;;;;-1.84;62.84;101924.41;6215198;23;20087;-82
2023/01/22 07:49:07;;;;;;;20.15;9.43;;;;;;;-2.17;62.40;101862.41;6162938;23;20016;-81
2023/01/22 07:51:36;;;;;;;19.98;9.00;;;;;;;-2.70;62.08;101788.72;6213853;23;20024;-80
2023/01/22 07:54:02;;;;;;;23.42;9.23;;;;;;;-1.65;62.55;101945.34;6219542;23;20036;-82
2023/01/22 07:56:32;;;;;;;20.83;8.98;;;;;;;-2.12;62.19;101860.19;6198370;23;20458;-81
2023/01/22 07:58:58;;;;;;;19.75;8.98;;;;;;;-2.53;62.43;101784.00;6197070;23;20012;-84
2023/01/22 08:01:31;;;;;;;26.35;9.25;;;;;;;-1.74;62.24;101905.56;6195803;23;20016;-84
2023/01/22 08:04:01;;;;;;;22.27;9.43;;;;;;;-2.38;62.30;101797.91;6218596;23;20021;-82
2023/01/22 08:06:30;;;;;;;19.25;8.60;;;;;;;-2.54;62.07;101792.41;6219663;23;20099;-82
2023/01/22 08:08:58;;;;;;;19.92;9.80;;;;;;;-2.30;62.10;101812.13;6216047;23;20051;-83
2023/01/22 08:11:35;;;;;;;24.08;10.40;;;;;;;-2.58;62.20;101778.56;6191588;23;20012;-82
2023/01/22 08:14:01;;;;;;;20.48;9.45;;;;;;;-1.78;61.69;101910.34;6213829;23;20016;-82
2023/01/22 08:16:31;;;;;;;19.88;8.57;;;;;;;-1.83;62.16;101916.00;6214383;23;20419;-81
2023/01/22 08:19:01;;;;;;;20.65;9.25;;;;;;;-2.47;62.46;101790.44;6203437;23;20074;-84
2023/01/22 08:21:35;;;;;;;24.13;9.68;;;;;;;-0.99;62.23;102008.13;6214818;23;20020;-85
2023/01/22 08:24:01;;;;;;;21.52;9.48;;;;;;;-1.43;62.14;101907.84;6216212;23;20016;-84
2023/01/22 08:26:41;;;;;;;20.73;8.85;;;;;;;-1.92;62.39;101808.13;6214943;23;20099;-86
2023/01/22 08:29:07;;;;;;;23.70;9.18;;;;;;;-1.91;62.42;101804.78;6193404;23;20413;-85
2023/01/22 08:31:34;;;;;;;25.90;10.43;;;;;;;-0.99;62.53;101970.66;6216643;23;20095;-86
2023/01/22 08:34:01;;;;;;;22.77;9.45;;;;;;;-1.59;62.14;101843.69;6212474;23;20033;-85
2023/01/22 08:36:30;;;;;;;21.20;9.70;;;;;;;-0.77;62.13;101965.44;6213241;23;20023;-85
2023/01/22 08:38:59;;;;;;;23.02;10.15;;;;;;;-1.03;62.58;101920.09;6212502;23;20456;-81
2023/01/22 08:41:28;;;;;;;24.77;9.23;;;;;;;-1.01;62.06;101892.09;6188458;23;20462;-84
2023/01/22 08:43:54;;;;;;;23.40;9.50;;;;;;;-1.19;61.90;101860.97;6217936;23;20017;-85
2023/01/22 08:46:20;;;;;;;21.38;8.73;;;;;;;-0.64;61.60;101986.75;6189778;23;20008;-82
2023/01/22 08:48:49;;;;;;;25.30;9.18;;;;;;;-0.94;62.11;101936.09;6192695;23;20017;-84
2023/01/22 08:51:16;;;;;;;20.90;9.45;;;;;;;-1.31;61.86;101872.09;6197571;23;20044;-83
2023/01/22 08:53:45;;;;;;;20.02;9.05;;;;;;;-0.46;61.72;102015.31;6220960;23;20012;-85
2023/01/22 08:56:13;;;;;;;20.02;9.27;;;;;;;-0.76;62.18;101968.88;6219901;23;20319;-82
2023/01/22 08:58:39;;;;;;;23.25;9.45;;;;;;;-1.21;61.54;101894.09;6197500;23;20027;-84
2023/01/22 09:01:06;;;;;;;22.67;9.48;;;;;;;-1.65;62.17;101802.38;6194925;23;20062;-84
2023/01/22 09:03:32;;;;;;;20.73;9.27;;;;;;;-1.03;61.38;101889.44;6210296;23;20005;-82
2023/01/22 09:05:58;;;;;;;20.45;9.25;;;;;;;-0.65;61.37;101944.97;6209784;23;20019;-81
2023/01/22 09:08:24;;;;;;;19.60;9.40;;;;;;;-0.11;61.73;102027.16;6186292;23;20001;-83
2023/01/22 09:10:50;;;;;;;20.65;9.82;;;;;;;-0.18;61.17;102028.41;6234061;23;20022;-84
2023/01/22 09:13:16;;;;;;;23.40;8.35;;;;;;;-0.77;61.46;101913.38;6235854;23;20016;-81
2023/01/22 09:15:43;;;;;;;22.65;9.13;;;;;;;-0.33;60.87;101994.06;6232295;23;20001;-82
2023/01/22 09:18:09;;;;;;;22.52;9.30;;;;;;;-0.14;60.98;102038.88;6232521;23;20021;-84
2023/01/22 09:20:37;;;;;;;25.38;9.23;;;;;;;-0.94;60.91;101915.63;6231785;22;20358;-82
2023/01/22 09:23:03;;;;;;;20.90;10.40;;;;;;;-0.19;61.84;102033.44;6230072;23;20023;-82
2023/01/22 09:26:01;;;;;;;26.65;9.15;;;;;;;-0.15;61.41;102050.78;6204336;23;20011;-82
2023/01/22 09:28:59;;;;;;;19.83;8.63;;;;;;;-0.52;61.25;101954.41;6186080;23;20012;-82
2023/01/22 09:31:28;;;;;;;25.25;9.05;;;;;;;-0.55;61.16;101930.28;6206717;23;20045;-81
2023/01/22 09:33:54;;;;;;;23.13;9.38;;;;;;;-0.19;60.48;101993.34;6197598;23;20017;-81
2023/01/22 09:36:21;;;;;;;24.02;9.40;;;;;;;-0.53;61.12;101959.38;6223687;23;20016;-80
2023/01/22 09:38:47;;;;;;;23.70;10.15;;;;;;;-0.07;61.29;102049.63;6201269;23;20022;-81
2023/01/22 09:41:38;;;;;;;24.67;10.10;;;;;;;0.04;61.69;102046.97;6226701;23;20029;-84
2023/01/22 09:44:10;;;;;;;24.88;10.15;;;;;;;0.13;61.31;102050.13;6234846;23;20009;-83
2023/01/22 09:46:41;;;;;;;26.25;9.70;;;;;;;0.09;61.16;102043.06;6231198;23;20024;-81
2023/01/22 09:49:20;;;;;;;24.15;9.82;;;;;;;-0.03;60.13;102049.09;6174911;23;20346;-81
2023/01/22 09:51:55;;;;;;;21.67;9.77;;;;;;;-0.08;61.10;102035.06;6229181;23;20059;-81
2023/01/22 09:54:22;;;;;;;24.20;9.90;;;;;;;0.14;61.66;102037.47;6204550;23;20026;-82
2023/01/22 09:57:02;;;;;;;23.48;9.60;;;;;;;0.08;61.10;102003.75;6229240;23;20024;-83
2023/01/22 09:59:41;;;;;;;20.92;9.73;;;;;;;0.03;60.94;102027.25;6199927;23;20032;-83
2023/01/22 10:05:38;;;;;;;24.08;9.93;;;;;;;-0.72;60.61;101917.16;6231121;23;20017;-82
2023/01/22 10:08:52;;;;;;;21.92;9.60;;;;;;;-1.12;61.60;101847.88;6229601;23;20020;-84
2023/01/22 10:11:20;;;;;;;23.40;9.23;;;;;;;0.07;60.99;102026.69;6212015;23;20476;-83
2023/01/22 10:13:55;;;;;;;21.52;9.50;;;;;;;-0.53;60.53;101965.41;6232271;23;20131;-82
2023/01/22 10:16:23;;;;;;;20.75;9.00;;;;;;;-0.60;60.57;101955.50;6199079;23;20421;-84
2023/01/22 10:18:51;;;;;;;19.60;9.00;;;;;;;-0.03;60.91;102046.53;6172393;23;20016;-82
2023/01/22 10:22:01;;;;;;;27.20;9.38;;;;;;;-0.53;60.73;101938.91;6223977;23;20084;-84
2023/01/22 10:25:13;;;;;;;21.45;8.70;;;;;;;-0.26;60.23;101987.69;6046992;23;20045;-85
2023/01/22 10:27:45;;;;;;;24.13;9.32;;;;;;;0.02;60.27;102033.16;6021603;23;20063;-87
2023/01/22 10:30:19;;;;;;;24.40;9.20;;;;;;;-0.08;60.64;102012.03;6045393;23;20025;-84
2023/01/22 10:32:59;;;;;;;17.77;8.18;;;;;;;-0.49;60.66;101930.69;6080248;23;20018;-85
2023/01/22 10:35:51;;;;;;;23.52;10.50;;;;;;;-0.78;60.69;101875.84;6225169;23;20055;-84
2023/01/22 10:38:55;;;;;;;20.58;9.40;;;;;;;0.47;60.04;102046.47;6201969;23;20000;-82
2023/01/22 10:41:32;;;;;;;22.55;9.45;;;;;;;0.06;60.27;101971.16;6222725;23;20028;-84
2023/01/22 10:44:17;;;;;;;24.80;9.82;;;;;;;0.54;60.00;102047.00;6209685;23;20027;-83
2023/01/22 10:47:17;;;;;;;;;;;;;;;;;;;;;
2023/01/22 10:50:40;;;;;;;;;;;;;;;;;;;;;
2023/01/22 10:53:44;;;;;;;37.60;14.68;;;;;;;-0.14;59.12;101932.28;6208424;23;20353;-83
2023/01/22 10:56:39;;;;;;;26.50;10.68;;;;;;;0.31;59.70;102001.00;6215117;23;20407;-83
2023/01/22 11:00:13;;;;;;;;;;;;;;;;;;;;;
2023/01/22 11:02:54;;;;;;;22.17;9.70;;;;;;;0.13;59.80;101945.16;6212192;23;20059;-83
2023/01/22 11:06:04;;;;;;;22.05;9.52;;;;;;;-0.39;59.10;101864.03;6210628;23;20012;-82
2023/01/22 11:08:48;;;;;;;24.20;9.23;;;;;;;0.05;59.02;101906.22;6152370;23;20016;-81
2023/01/22 11:11:30;;;;;;;20.25;10.13;;;;;;;0.37;59.32;101947.59;6211393;23;20021;-84
2023/01/22 11:14:42;;;;;;;20.73;9.93;;;;;;;0.89;58.65;102051.03;6184182;23;20074;-84
2023/01/22 11:18:20;;;;;;;21.77;9.35;;;;;;;-0.01;58.79;101950.22;6189022;23;20032;-83
2023/01/22 11:20:59;;;;;;;26.67;10.20;;;;;;;-0.53;59.33;101898.91;6165413;23;20126;-83
2023/01/22 11:24:18;;;;;;;23.63;10.25;;;;;;;0.54;58.98;102048.66;6213042;23;20027;-84
2023/01/22 11:27:11;;;;;;;22.08;10.07;;;;;;;0.59;59.45;102057.56;6213290;23;20028;-82
2023/01/22 11:29:56;;;;;;;21.75;10.48;;;;;;;0.13;58.89;101998.94;6211618;23;20013;-84
2023/01/22 11:32:56;;;;;;;21.75;9.73;;;;;;;0.46;59.27;102050.69;6212477;23;20032;-83
2023/01/22 11:38:53;;;;;;;20.48;10.15;;;;;;;-0.43;58.63;101951.59;6212190;23;20390;-84
2023/01/22 11:45:30;;;;;;;29.83;11.07;;;;;;;0.55;59.76;102060.69;6179859;23;20024;-83
2023/01/22 11:53:06;;;;;;;23.58;10.23;;;;;;;-0.43;58.70;101931.13;6197311;23;20040;-83
2023/01/22 12:01:01;;;;;;;;;;;;;;;;;;;;;
2023/01/22 12:13:27;;;;;;;22.70;11.30;;;;;;;-0.14;58.92;102020.94;6001693;23;20035;-85
2023/01/22 12:25:42;;;;;;;25.27;10.82;;;;;;;0.45;58.56;102052.38;5981246;23;20496;-82
2023/01/22 12:29:16;;;;;;;;;;;;;;;;;;;;;
2023/01/22 12:33:16;;;;;;;26.67;11.73;;;;;;;-0.53;58.86;101873.31;6009782;23;20035;-83
2023/01/22 12:36:15;;;;;;;27.00;11.18;;;;;;;-0.20;59.07;101944.63;6081213;23;20124;-83
2023/01/22 12:39:53;;;;;;;26.38;11.02;;;;;;;0.47;58.46;102065.28;6083798;23;20024;-81
2023/01/22 12:43:05;;;;;;;25.63;11.10;;;;;;;-0.17;59.19;101955.09;6132800;23;20023;-83
2023/01/22 12:46:30;;;;;;;26.05;12.50;;;;;;;0.13;58.10;102045.94;6137320;23;20105;-87
2023/01/22 13:01:42;;;;;;;22.13;10.70;;;;;;;-0.88;58.82;101873.41;6210407;23;20071;-86
2023/01/22 13:04:39;;;;;;;29.40;12.65;;;;;;;-0.23;59.74;101988.81;6195088;23;20023;-83
2023/01/22 13:07:30;;;;;;;29.25;12.27;;;;;;;0.44;59.55;102071.06;6222421;23;20115;-84
2023/01/22 13:17:31;;;;;;;26.17;11.73;;;;;;;-0.80;58.58;101865.50;6223125;23;20021;-84
2023/01/22 13:20:17;;;;;;;26.60;11.55;;;;;;;-0.72;58.87;101926.53;6228642;23;20040;-89
2023/01/22 13:29:19;;;;;;;27.08;11.48;;;;;;;-0.09;59.32;102115.19;6071271;23;20077;-83
2023/01/22 13:53:08;;;;;;;30.08;10.45;;;;;;;-0.65;59.47;101997.75;6236044;22;20052;-85
2023/01/22 13:56:31;;;;;;;;;;;;;;;;;;;;;
2023/01/22 13:59:58;;;;;;;27.17;10.20;;;;;;;-1.28;59.11;101919.97;6231649;23;19959;-85